Portada
METAR-TAF:

METAR-TAF

Aeroports :

Kozhikode, Índia

latitud: 11-08-24N, longitud: 75-57-00E, altitud: 104 m

Observació

L'informe es va fer fa 31 minuts, a les 16:00 UTC
Vent 2 kt del Est/Nord-Est
Temperatura 23°C
Humitat 94%
Pressió 1005 hPa
Visibilitat: 5000 m
Núvols disperses a una alçada de 1200 ft
Escasses núvols a una alçada de 2500 ft, Cumulonimbus.
Cel cobert a una alçada de 8000 ft
boirina

METAR: VOCL 171600Z 07002KT 5000 BR SCT012 FEW025CB OVC080 23/22 Q1005 NOSIG

Hora: 22:01 (16:31 UTC)

Pronòstic

L'informe es va fer fa 2 hores i 31 minuts, a les 14:00 UTC
Pronòstic vàlid del 17 a les 15 UTC al 17 a les 24 UTC
Vent 3 kt amb direcció variable
Visibilitat: 3000 m
Núvols disperses a una alçada de 600 ft
Núvols disperses a una alçada de 1200 ft
Cel cobert a una alçada de 8000 ft
pluja, boirina
Temporalment
l' 17 a les 20 UTC al 17 a les 24 UTC
Visibilitat: 2000 m
pluja, boirina

TAF: VOCL 171400Z 1715/1724 VRB03KT 3000 RA BR SCT006 SCT012 OVC080 TEMPO 1720/1724 2000 RA BR

Observacions i pronòstics meteorològics de més de 4000 aeroports (METAR i TAF).

Les estacions disponibles són els punts grocs i vermells al mapa.

Posi el ratolí al punt desitjat per veure el nom de l'estació.

Feu clic per veure les observacions i els pronòstics meteorològics.

Per canviar el mapa: feu clic els botons verds amb una creu de color negre per apropar; al botó verd amb un guió per allunyar la imatge; o en les fletxes verdes per a mapes adjacents.


METAR-TAF: